createdAt,value
2019-05-07T00:01:54.962Z,4.50
2019-05-07T00:04:22.710Z,4.50
2019-05-07T00:06:52.810Z,4.70
2019-05-07T00:09:23.266Z,4.60
2019-05-07T00:11:53.319Z,4.50
2019-05-07T00:14:23.160Z,4.50
2019-05-07T00:16:53.497Z,4.50
2019-05-07T00:19:23.157Z,4.60
2019-05-07T00:21:52.771Z,4.60
2019-05-07T00:24:22.345Z,4.50
2019-05-07T00:26:53.023Z,4.70
2019-05-07T00:29:22.377Z,4.70
2019-05-07T00:31:52.041Z,4.70
2019-05-07T00:34:22.643Z,4.80
2019-05-07T00:36:56.213Z,4.80
2019-05-07T00:39:44.686Z,4.70
2019-05-07T00:42:22.095Z,4.80
2019-05-07T00:45:13.225Z,4.80
2019-05-07T00:47:28.583Z,4.80
2019-05-07T00:49:58.643Z,4.80
2019-05-07T00:52:27.150Z,4.90
2019-05-07T00:54:55.581Z,4.90
2019-05-07T00:57:24.000Z,4.90
2019-05-07T00:59:52.613Z,4.90
2019-05-07T01:02:22.644Z,5.00
2019-05-07T01:04:52.997Z,6.20
2019-05-07T01:07:22.965Z,5.50
2019-05-07T01:09:52.443Z,4.80
2019-05-07T01:12:22.232Z,4.70
2019-05-07T01:14:52.843Z,4.80
2019-05-07T01:17:22.697Z,4.80
2019-05-07T01:19:53.294Z,4.90
2019-05-07T01:22:22.267Z,5.00
2019-05-07T01:24:52.558Z,5.00
2019-05-07T01:27:22.692Z,5.00
2019-05-07T01:29:52.799Z,5.10
2019-05-07T01:32:26.088Z,5.10
2019-05-07T01:34:56.158Z,5.00
2019-05-07T01:37:24.605Z,4.90
2019-05-07T01:39:53.146Z,5.00
2019-05-07T01:42:22.227Z,4.90
2019-05-07T01:44:52.818Z,4.90
2019-05-07T01:47:23.422Z,4.90
2019-05-07T01:49:52.420Z,4.90
2019-05-07T01:52:22.644Z,4.90
2019-05-07T01:54:52.238Z,4.90
2019-05-07T01:57:22.989Z,4.90
2019-05-07T01:59:52.793Z,4.80
2019-05-07T02:02:28.886Z,4.80
2019-05-07T02:05:07.872Z,4.90
2019-05-07T02:07:37.946Z,4.80
2019-05-07T02:10:11.958Z,4.00
2019-05-07T02:12:42.539Z,3.70
2019-05-07T02:15:12.016Z,3.50
2019-05-07T02:17:42.817Z,3.40
2019-05-07T02:20:12.914Z,3.40
2019-05-07T02:22:53.327Z,3.40
2019-05-07T02:25:22.191Z,3.30
2019-05-07T02:27:52.741Z,3.30
2019-05-07T02:30:23.838Z,3.40
2019-05-07T02:32:53.929Z,3.40
2019-05-07T02:35:23.529Z,3.40
2019-05-07T02:37:57.097Z,3.40
2019-05-07T02:40:27.272Z,3.30
2019-05-07T02:42:55.689Z,3.10
2019-05-07T02:45:25.761Z,2.90
2019-05-07T02:47:54.207Z,2.70
2019-05-07T02:50:26.971Z,2.70
2019-05-07T02:53:06.249Z,2.60
2019-05-07T02:55:45.002Z,2.70
2019-05-07T02:58:13.870Z,2.70
2019-05-07T03:00:43.479Z,2.60
2019-05-07T03:03:13.865Z,2.50
2019-05-07T03:05:43.150Z,2.20
2019-05-07T03:08:13.481Z,2.10
2019-05-07T03:10:43.516Z,2.10
2019-05-07T03:13:13.783Z,2.10
2019-05-07T03:15:43.491Z,2.20
2019-05-07T03:18:13.916Z,2.20
2019-05-07T03:20:46.815Z,2.10
2019-05-07T03:23:16.904Z,1.90
2019-05-07T03:25:49.486Z,1.90
2019-05-07T03:28:19.031Z,1.90
2019-05-07T03:31:05.284Z,1.80
2019-05-07T03:33:36.993Z,1.70
2019-05-07T03:36:07.986Z,1.70
2019-05-07T03:38:36.687Z,1.60
2019-05-07T03:41:05.202Z,1.60
2019-05-07T03:43:33.772Z,1.70
2019-05-07T03:46:03.881Z,1.70
2019-05-07T03:48:33.997Z,1.70
2019-05-07T03:51:03.666Z,1.60
2019-05-07T03:53:33.783Z,1.50
2019-05-07T03:56:04.045Z,1.50
2019-05-07T03:58:33.976Z,1.50
2019-05-07T04:01:04.298Z,1.50
2019-05-07T04:03:34.384Z,1.50
2019-05-07T04:06:03.990Z,1.60
2019-05-07T04:08:33.413Z,1.60
2019-05-07T04:11:03.641Z,1.70
2019-05-07T04:13:33.386Z,1.70
2019-05-07T04:16:04.104Z,1.60
2019-05-07T04:18:33.123Z,1.60
2019-05-07T04:21:03.708Z,1.80
2019-05-07T04:23:34.283Z,1.90
2019-05-07T04:26:06.657Z,2.10
2019-05-07T04:28:54.005Z,2.10
2019-05-07T04:31:24.039Z,2.00
2019-05-07T04:33:53.336Z,2.10
2019-05-07T04:36:23.569Z,2.20
2019-05-07T04:38:53.179Z,2.30
2019-05-07T04:41:23.327Z,2.40
2019-05-07T04:43:54.089Z,2.40
2019-05-07T04:46:23.537Z,2.60
2019-05-07T04:48:52.859Z,2.50
2019-05-07T04:51:23.406Z,2.60
2019-05-07T04:53:54.038Z,2.70
2019-05-07T04:56:23.816Z,2.80
2019-05-07T04:58:53.223Z,2.80
2019-05-07T05:01:23.735Z,2.70
2019-05-07T05:03:53.969Z,2.70
2019-05-07T05:06:24.171Z,2.70
2019-05-07T05:08:56.060Z,2.90
2019-05-07T05:11:23.746Z,2.90
2019-05-07T05:13:53.241Z,2.80
2019-05-07T05:16:26.576Z,2.80
2019-05-07T05:18:56.107Z,2.80
2019-05-07T05:21:38.449Z,3.10
2019-05-07T05:24:12.639Z,3.00
2019-05-07T05:26:41.889Z,3.40
2019-05-07T05:29:12.143Z,3.60
2019-05-07T05:31:42.171Z,4.00
2019-05-07T05:34:12.870Z,3.80
2019-05-07T05:36:42.445Z,4.10
2019-05-07T05:39:13.132Z,4.40
2019-05-07T05:41:43.346Z,4.70
2019-05-07T05:44:13.447Z,5.00
2019-05-07T05:46:42.847Z,5.30
2019-05-07T05:49:12.151Z,5.50
2019-05-07T05:51:45.223Z,5.20
2019-05-07T05:54:31.862Z,5.40
2019-05-07T05:57:17.557Z,5.80
2019-05-07T05:59:56.506Z,6.00
2019-05-07T06:02:29.539Z,6.20
2019-05-07T06:05:16.397Z,6.40
2019-05-07T06:07:52.687Z,6.50
2019-05-07T06:10:28.935Z,6.70
2019-05-07T06:12:59.012Z,7.20
2019-05-07T06:15:29.070Z,7.20
2019-05-07T06:18:06.881Z,7.00
2019-05-07T06:20:34.075Z,7.00
2019-05-07T06:25:52.305Z,7.00
2019-05-07T06:28:22.411Z,7.10
2019-05-07T06:30:52.707Z,7.30
2019-05-07T06:33:22.944Z,7.50
2019-05-07T06:35:52.066Z,7.30
2019-05-07T06:38:22.045Z,7.30
2019-05-07T06:40:52.313Z,7.20
2019-05-07T06:43:38.814Z,7.50
2019-05-07T06:46:07.423Z,7.70
2019-05-07T06:48:42.432Z,7.80
2019-05-07T06:51:06.021Z,7.70
2019-05-07T06:53:34.460Z,7.90
2019-05-07T06:56:04.545Z,7.90
2019-05-07T06:58:43.819Z,8.00
2019-05-07T07:01:16.786Z,8.40
2019-05-07T07:04:05.116Z,9.00
2019-05-07T07:06:52.371Z,9.30
2019-05-07T07:09:22.419Z,9.30
2019-05-07T07:11:58.449Z,9.30
2019-05-07T07:14:26.881Z,9.40
2019-05-07T07:16:55.307Z,9.70
2019-05-07T07:19:23.743Z,9.80
2019-05-07T07:21:52.841Z,9.90
2019-05-07T07:24:22.166Z,10.20
2019-05-07T07:26:52.814Z,10.30
2019-05-07T07:29:22.742Z,10.20
2019-05-07T07:31:55.785Z,10.20
2019-05-07T07:34:25.195Z,10.40
2019-05-07T07:37:06.060Z,10.60
2019-05-07T07:39:32.323Z,11.00
2019-05-07T07:42:02.991Z,10.80
2019-05-07T07:44:33.008Z,11.10
2019-05-07T07:47:02.489Z,11.50
2019-05-07T07:49:32.943Z,11.70
2019-05-07T07:52:03.190Z,11.80
2019-05-07T07:54:32.082Z,12.00
2019-05-07T07:57:02.455Z,11.60
2019-05-07T07:59:52.803Z,11.10
2019-05-07T08:02:22.977Z,11.20
2019-05-07T08:04:52.761Z,11.50
2019-05-07T08:07:22.836Z,11.90
2019-05-07T08:09:52.103Z,12.20
2019-05-07T08:12:22.130Z,12.60
2019-05-07T08:14:51.960Z,12.60
2019-05-07T08:17:22.367Z,12.00
2019-05-07T08:19:51.939Z,12.50
2019-05-07T08:22:22.612Z,11.70
2019-05-07T08:24:51.946Z,12.30
2019-05-07T08:27:22.178Z,13.10
2019-05-07T08:29:52.456Z,12.60
2019-05-07T08:32:22.500Z,12.60
2019-05-07T08:34:52.638Z,12.60
2019-05-07T08:37:24.261Z,13.00
2019-05-07T08:39:52.028Z,12.90
2019-05-07T08:42:22.740Z,12.80
2019-05-07T08:44:55.448Z,13.10
2019-05-07T08:47:37.571Z,13.20
2019-05-07T08:50:07.234Z,13.30
2019-05-07T08:52:35.677Z,12.90
2019-05-07T08:55:06.952Z,13.60
2019-05-07T08:57:35.462Z,13.00
2019-05-07T09:00:06.091Z,13.00
2019-05-07T09:02:34.534Z,12.90
2019-05-07T09:05:03.200Z,12.50
2019-05-07T09:07:32.275Z,12.40
2019-05-07T09:10:02.478Z,12.50
2019-05-07T09:12:31.888Z,13.00
2019-05-07T09:15:02.225Z,12.70
2019-05-07T09:17:31.859Z,13.20
2019-05-07T09:20:02.356Z,13.30
2019-05-07T09:22:32.344Z,12.90
2019-05-07T09:25:03.067Z,12.90
2019-05-07T09:27:35.525Z,13.20
2019-05-07T09:30:07.755Z,13.30
2019-05-07T09:32:43.880Z,12.10
2019-05-07T09:35:26.683Z,11.90
2019-05-07T09:37:55.135Z,12.30
2019-05-07T09:40:23.562Z,12.50
2019-05-07T09:42:52.542Z,12.80
2019-05-07T09:45:22.486Z,12.80
2019-05-07T09:47:52.209Z,12.70
2019-05-07T09:50:22.011Z,13.00
2019-05-07T09:52:51.790Z,13.10
2019-05-07T09:55:20.602Z,13.00
2019-05-07T09:57:49.145Z,13.20
2019-05-07T10:00:19.711Z,13.30
2019-05-07T10:02:48.238Z,13.20
2019-05-07T10:05:16.805Z,12.80
2019-05-07T10:07:45.229Z,12.40
2019-05-07T10:10:14.422Z,12.50
2019-05-07T10:12:47.750Z,11.70
2019-05-07T10:15:16.667Z,11.50
2019-05-07T10:17:46.824Z,11.60
2019-05-07T10:20:21.686Z,12.10
2019-05-07T10:22:45.988Z,12.60
2019-05-07T10:25:14.805Z,13.10
2019-05-07T10:27:43.463Z,12.80
2019-05-07T10:30:12.938Z,12.60
2019-05-07T10:32:42.134Z,12.30
2019-05-07T10:35:12.974Z,12.60
2019-05-07T10:37:42.272Z,12.50
2019-05-07T10:40:12.378Z,12.30
2019-05-07T10:42:42.954Z,12.60
2019-05-07T10:45:13.107Z,12.10
2019-05-07T10:47:43.393Z,12.30
2019-05-07T10:50:16.629Z,11.90
2019-05-07T10:52:45.056Z,12.50
2019-05-07T10:55:13.739Z,12.10
2019-05-07T10:57:42.379Z,12.30
2019-05-07T11:00:14.021Z,12.50
2019-05-07T11:02:42.630Z,13.00
2019-05-07T11:05:12.927Z,13.20
2019-05-07T11:07:42.211Z,13.40
2019-05-07T11:10:12.348Z,13.60
2019-05-07T11:12:42.419Z,13.70
2019-05-07T11:15:12.633Z,13.90
2019-05-07T11:17:42.947Z,13.80
2019-05-07T11:20:13.298Z,13.90
2019-05-07T11:22:42.894Z,13.90
2019-05-07T11:25:12.152Z,14.00
2019-05-07T11:27:42.108Z,14.10
2019-05-07T11:30:12.215Z,14.00
2019-05-07T11:32:42.800Z,14.00
2019-05-07T11:35:12.157Z,14.20
2019-05-07T11:37:44.127Z,14.10
2019-05-07T11:40:13.091Z,13.90
2019-05-07T11:42:58.432Z,13.70
2019-05-07T11:45:28.591Z,13.50
2019-05-07T11:47:57.018Z,13.60
2019-05-07T11:50:30.079Z,13.80
2019-05-07T11:53:00.162Z,13.80
2019-05-07T11:55:28.671Z,13.90
2019-05-07T11:57:57.107Z,13.80
2019-05-07T12:00:32.380Z,14.00
2019-05-07T12:03:02.293Z,14.40
2019-05-07T12:05:33.043Z,14.60
2019-05-07T12:08:02.375Z,14.80
2019-05-07T12:10:32.763Z,14.90
2019-05-07T12:13:02.451Z,15.10
2019-05-07T12:15:32.499Z,15.00
2019-05-07T12:18:02.983Z,14.90
2019-05-07T12:20:32.439Z,14.40
2019-05-07T12:23:02.802Z,14.90
2019-05-07T12:25:32.049Z,14.70
2019-05-07T12:28:02.506Z,15.30
2019-05-07T12:30:47.776Z,15.10
2019-05-07T12:33:20.844Z,14.70
2019-05-07T12:35:49.287Z,14.70
2019-05-07T12:38:17.732Z,14.40
2019-05-07T12:40:46.169Z,14.10
2019-05-07T12:43:14.607Z,13.90
2019-05-07T12:45:43.034Z,14.40
2019-05-07T12:48:14.011Z,14.50
2019-05-07T12:50:43.186Z,14.30
2019-05-07T12:53:16.631Z,14.60
2019-05-07T12:55:46.703Z,14.70
2019-05-07T12:58:15.151Z,15.20
2019-05-07T13:00:47.969Z,15.50
2019-05-07T13:03:18.055Z,15.50
2019-05-07T13:05:46.477Z,14.60
2019-05-07T13:08:14.988Z,14.40
2019-05-07T13:10:43.430Z,13.80
2019-05-07T13:13:12.348Z,13.40
2019-05-07T13:15:43.288Z,13.20
2019-05-07T13:18:12.689Z,14.00
2019-05-07T13:20:41.302Z,13.80
2019-05-07T13:23:11.817Z,14.10
2019-05-07T13:25:39.907Z,14.80
2019-05-07T13:28:08.356Z,15.30
2019-05-07T13:30:36.814Z,15.10
2019-05-07T13:33:05.562Z,14.60
2019-05-07T13:35:35.537Z,15.20
2019-05-07T13:38:06.295Z,14.80
2019-05-07T13:40:36.657Z,15.00
2019-05-07T13:43:08.622Z,15.10
2019-05-07T13:45:38.879Z,14.90
2019-05-07T13:48:14.903Z,14.90
2019-05-07T13:50:43.423Z,15.20
2019-05-07T13:53:12.377Z,15.30
2019-05-07T13:55:42.334Z,15.40
2019-05-07T13:58:14.012Z,15.10
2019-05-07T14:00:43.631Z,15.00
2019-05-07T14:03:12.124Z,15.20
2019-05-07T14:05:42.519Z,15.30
2019-05-07T14:08:11.931Z,15.50
2019-05-07T14:10:42.417Z,15.90
2019-05-07T14:13:16.598Z,16.10
2019-05-07T14:15:43.073Z,15.70
2019-05-07T14:18:11.667Z,15.60
2019-05-07T14:20:42.385Z,15.60
2019-05-07T14:23:12.629Z,15.50
2019-05-07T14:25:41.921Z,15.70
2019-05-07T14:28:10.444Z,15.60
2019-05-07T14:30:39.377Z,15.20
2019-05-07T14:33:12.451Z,15.50
2019-05-07T14:35:57.715Z,15.50
2019-05-07T14:38:32.052Z,15.60
2019-05-07T14:41:02.515Z,15.40
2019-05-07T14:43:41.901Z,15.40
2019-05-07T14:46:11.975Z,15.40
2019-05-07T14:48:43.519Z,15.20
2019-05-07T14:51:12.680Z,15.40
2019-05-07T14:53:41.676Z,15.60
2019-05-07T14:56:11.832Z,15.60
2019-05-07T14:58:42.259Z,15.60
2019-05-07T15:01:11.779Z,15.70
2019-05-07T15:03:42.231Z,15.90
2019-05-07T15:06:12.477Z,15.70
2019-05-07T15:08:42.744Z,15.50
2019-05-07T15:11:11.326Z,15.60
2019-05-07T15:13:39.880Z,15.60
2019-05-07T15:16:08.322Z,15.70
2019-05-07T15:18:53.735Z,15.50
2019-05-07T15:21:23.014Z,15.40
2019-05-07T15:23:53.388Z,15.40
2019-05-07T15:26:22.147Z,15.50
2019-05-07T15:28:55.699Z,15.60
2019-05-07T15:31:25.852Z,15.70
2019-05-07T15:33:54.360Z,15.90
2019-05-07T15:36:22.807Z,15.80
2019-05-07T15:38:52.139Z,15.70
2019-05-07T15:41:22.686Z,15.50
2019-05-07T15:43:52.142Z,15.40
2019-05-07T15:46:22.600Z,15.60
2019-05-07T15:48:52.598Z,15.60
2019-05-07T15:51:22.585Z,15.50
2019-05-07T15:53:55.890Z,15.60
2019-05-07T15:56:24.387Z,15.60
2019-05-07T15:58:52.822Z,15.60
2019-05-07T16:01:22.202Z,15.50
2019-05-07T16:03:54.396Z,15.20
2019-05-07T16:06:21.987Z,15.20
2019-05-07T16:08:52.396Z,14.90
2019-05-07T16:11:23.054Z,14.80
2019-05-07T16:14:04.683Z,15.00
2019-05-07T16:16:34.248Z,15.20
2019-05-07T16:19:11.881Z,15.30
2019-05-07T16:21:42.396Z,15.10
2019-05-07T16:24:12.125Z,15.20
2019-05-07T16:26:41.868Z,15.10
2019-05-07T16:29:12.965Z,15.00
2019-05-07T16:31:40.740Z,15.00
2019-05-07T16:34:09.179Z,15.00
2019-05-07T16:36:37.616Z,14.90
2019-05-07T16:39:07.329Z,15.10
2019-05-07T16:41:35.756Z,14.80
2019-05-07T16:44:04.949Z,14.80
2019-05-07T16:46:33.373Z,14.90
2019-05-07T16:49:02.304Z,15.00
2019-05-07T16:51:32.828Z,14.90
2019-05-07T16:54:03.230Z,14.80
2019-05-07T16:56:33.140Z,14.70
2019-05-07T16:59:02.959Z,14.60
2019-05-07T17:01:32.417Z,14.60
2019-05-07T17:04:02.782Z,14.70
2019-05-07T17:06:32.126Z,14.60
2019-05-07T17:09:08.234Z,14.50
2019-05-07T17:11:36.676Z,14.60
2019-05-07T17:14:05.172Z,14.70
2019-05-07T17:16:33.635Z,14.80
2019-05-07T17:19:02.600Z,14.60
2019-05-07T17:21:32.431Z,14.50
2019-05-07T17:24:02.571Z,14.40
2019-05-07T17:26:31.299Z,13.90
2019-05-07T17:28:59.782Z,13.70
2019-05-07T17:31:28.219Z,13.50
2019-05-07T17:33:56.657Z,13.00
2019-05-07T17:36:25.090Z,13.00
2019-05-07T17:38:53.514Z,13.00
2019-05-07T17:41:27.009Z,13.40
2019-05-07T17:43:53.094Z,13.70
2019-05-07T17:46:21.822Z,13.90
2019-05-07T17:48:52.225Z,13.80
2019-05-07T17:51:22.206Z,13.90
2019-05-07T17:53:59.691Z,13.90
2019-05-07T17:56:22.337Z,13.90
2019-05-07T17:58:52.237Z,13.70
2019-05-07T18:01:22.357Z,13.90
2019-05-07T18:03:52.014Z,13.80
2019-05-07T18:06:20.601Z,13.70
2019-05-07T18:08:49.034Z,13.30
2019-05-07T18:11:21.150Z,13.30
2019-05-07T18:13:47.717Z,13.30
2019-05-07T18:16:27.033Z,13.30
2019-05-07T18:18:55.469Z,13.00
2019-05-07T18:21:23.919Z,12.80
2019-05-07T18:23:52.351Z,12.80
2019-05-07T18:26:29.791Z,12.50
2019-05-07T18:28:52.211Z,12.50
2019-05-07T18:31:22.492Z,12.30
2019-05-07T18:33:52.564Z,12.30
2019-05-07T18:36:22.663Z,12.20
2019-05-07T18:38:52.822Z,11.80
2019-05-07T18:41:22.310Z,11.50
2019-05-07T18:43:54.427Z,11.40
2019-05-07T18:46:22.163Z,11.30
2019-05-07T18:48:51.860Z,11.00
2019-05-07T18:51:20.562Z,10.90
2019-05-07T18:53:49.005Z,10.60
2019-05-07T18:56:17.446Z,10.40
2019-05-07T18:58:45.899Z,10.20
2019-05-07T19:01:15.883Z,10.10
2019-05-07T19:03:44.503Z,9.70
2019-05-07T19:06:14.034Z,9.60
2019-05-07T19:08:42.475Z,9.80
2019-05-07T19:11:12.374Z,9.70
2019-05-07T19:13:42.042Z,9.80
2019-05-07T19:16:12.487Z,9.70
2019-05-07T19:18:42.976Z,9.90
2019-05-07T19:21:11.068Z,10.50
2019-05-07T19:23:39.566Z,10.80
2019-05-07T19:26:08.046Z,10.70
2019-05-07T19:28:36.501Z,10.70
2019-05-07T19:31:04.915Z,10.60
2019-05-07T19:33:36.452Z,10.70
2019-05-07T19:36:05.107Z,10.80
2019-05-07T19:38:33.545Z,10.80
2019-05-07T19:41:02.248Z,10.70
2019-05-07T19:43:32.579Z,10.60
2019-05-07T19:46:02.862Z,10.40
2019-05-07T19:48:32.278Z,10.30
2019-05-07T19:51:02.921Z,10.20
2019-05-07T19:53:32.722Z,10.10
2019-05-07T19:56:08.960Z,9.90
2019-05-07T19:58:37.490Z,9.90
2019-05-07T20:01:07.218Z,9.80
2019-05-07T20:03:39.279Z,9.70
2019-05-07T20:06:07.659Z,9.60
2019-05-07T20:08:36.093Z,9.70
2019-05-07T20:11:13.256Z,9.70
2019-05-07T20:13:43.705Z,9.80
2019-05-07T20:16:13.531Z,9.60
2019-05-07T20:18:42.877Z,9.50
2019-05-07T20:21:12.373Z,9.30
2019-05-07T20:23:43.207Z,9.30
2019-05-07T20:26:12.581Z,9.10
2019-05-07T20:28:41.826Z,9.10
2019-05-07T20:31:12.194Z,8.80
2019-05-07T20:33:42.265Z,8.80
2019-05-07T20:36:10.953Z,8.90
2019-05-07T20:38:39.384Z,8.90
2019-05-07T20:41:07.813Z,8.80
2019-05-07T20:43:37.122Z,8.60
2019-05-07T20:46:05.552Z,8.60
2019-05-07T20:48:34.007Z,8.70
2019-05-07T20:51:02.580Z,8.60
2019-05-07T20:53:47.959Z,8.40
2019-05-07T20:56:18.031Z,8.50
2019-05-07T20:58:46.469Z,8.50
2019-05-07T21:01:14.885Z,8.40
2019-05-07T21:03:43.411Z,8.30
2019-05-07T21:06:11.814Z,8.30
2019-05-07T21:08:42.538Z,8.20
2019-05-07T21:11:11.941Z,8.20
2019-05-07T21:13:44.097Z,8.20
2019-05-07T21:16:12.599Z,8.20
2019-05-07T21:18:42.156Z,8.80
2019-05-07T21:21:12.446Z,9.10
2019-05-07T21:23:43.316Z,8.20
2019-05-07T21:26:13.103Z,7.90
2019-05-07T21:28:43.246Z,7.80
2019-05-07T21:31:12.046Z,7.60
2019-05-07T21:33:42.719Z,7.30
2019-05-07T21:36:12.107Z,7.40
2019-05-07T21:38:42.567Z,7.50
2019-05-07T21:41:12.870Z,7.40
2019-05-07T21:43:43.059Z,7.30
2019-05-07T21:46:12.771Z,7.20
2019-05-07T21:48:41.456Z,7.30
2019-05-07T21:51:12.115Z,7.30
2019-05-07T21:53:51.566Z,7.30
2019-05-07T21:56:37.531Z,7.30
2019-05-07T21:59:07.594Z,7.30
2019-05-07T22:01:37.676Z,7.30
2019-05-07T22:04:06.091Z,7.10
2019-05-07T22:06:34.546Z,7.10
2019-05-07T22:09:03.049Z,7.20
2019-05-07T22:11:32.363Z,7.10
2019-05-07T22:14:02.115Z,6.90
2019-05-07T22:16:32.318Z,7.00
2019-05-07T22:19:02.610Z,6.80
2019-05-07T22:21:33.980Z,6.60
2019-05-07T22:24:02.825Z,6.50
2019-05-07T22:26:32.211Z,6.50
2019-05-07T22:29:02.883Z,6.60
2019-05-07T22:31:35.313Z,6.30
2019-05-07T22:34:05.367Z,6.30
2019-05-07T22:36:33.800Z,6.40
2019-05-07T22:39:02.226Z,6.30
2019-05-07T22:41:31.818Z,6.20
2019-05-07T22:44:02.391Z,6.10
2019-05-07T22:46:32.605Z,6.10
2019-05-07T22:49:02.933Z,6.20
2019-05-07T22:51:30.944Z,6.30
2019-05-07T22:53:59.362Z,6.20
2019-05-07T22:56:35.119Z,6.10
2019-05-07T22:58:59.589Z,6.00
2019-05-07T23:01:28.039Z,5.90
2019-05-07T23:03:56.523Z,6.10
2019-05-07T23:06:24.968Z,5.90
2019-05-07T23:08:53.400Z,5.90
2019-05-07T23:11:22.922Z,5.90
2019-05-07T23:13:52.441Z,5.80
2019-05-07T23:16:23.208Z,5.90
2019-05-07T23:18:51.791Z,5.80
2019-05-07T23:21:24.408Z,5.80
2019-05-07T23:23:52.629Z,5.90
2019-05-07T23:26:23.172Z,5.90
2019-05-07T23:28:51.942Z,6.10
2019-05-07T23:31:22.640Z,6.10
2019-05-07T23:33:52.297Z,6.10
2019-05-07T23:36:22.480Z,6.10
2019-05-07T23:38:52.064Z,6.20
2019-05-07T23:41:25.290Z,6.20
2019-05-07T23:44:12.490Z,6.10
2019-05-07T23:46:44.383Z,6.00
2019-05-07T23:49:12.494Z,5.90
2019-05-07T23:51:42.090Z,5.90
2019-05-07T23:54:12.144Z,5.70
2019-05-07T23:56:42.687Z,5.80
2019-05-07T23:59:14.476Z,5.80
